sensor_id;sensor_type;location;lat;lon;timestamp;P1;durP1;ratioP1;P2;durP2;ratioP2
77076;SDS011;66003;52.286;104.306;2023-02-01T00:01:55;6.85;;;3.72;;
77076;SDS011;66003;52.286;104.306;2023-02-01T00:04:22;4.57;;;2.95;;
77076;SDS011;66003;52.286;104.306;2023-02-01T00:06:48;1.95;;;1.30;;
77076;SDS011;66003;52.286;104.306;2023-02-01T00:09:14;3.92;;;2.83;;
77076;SDS011;66003;52.286;104.306;2023-02-01T00:11:40;0.55;;;0.55;;
77076;SDS011;66003;52.286;104.306;2023-02-01T00:14:06;3.38;;;1.67;;
77076;SDS011;66003;52.286;104.306;2023-02-01T00:16:33;1.13;;;1.02;;
77076;SDS011;66003;52.286;104.306;2023-02-01T00:19:04;1.38;;;1.38;;
77076;SDS011;66003;52.286;104.306;2023-02-01T00:21:32;7.63;;;4.88;;
77076;SDS011;66003;52.286;104.306;2023-02-01T00:23:58;1.33;;;1.25;;
77076;SDS011;66003;52.286;104.306;2023-02-01T00:26:32;8.10;;;4.70;;
77076;SDS011;66003;52.286;104.306;2023-02-01T00:29:00;6.80;;;3.20;;
77076;SDS011;66003;52.286;104.306;2023-02-01T00:31:27;3.90;;;3.40;;
77076;SDS011;66003;52.286;104.306;2023-02-01T00:33:54;10.20;;;6.03;;
77076;SDS011;66003;52.286;104.306;2023-02-01T00:36:20;11.98;;;4.65;;
77076;SDS011;66003;52.286;104.306;2023-02-01T00:38:46;0.30;;;0.30;;
77076;SDS011;66003;52.286;104.306;2023-02-01T00:41:16;2.53;;;2.15;;
77076;SDS011;66003;52.286;104.306;2023-02-01T00:43:44;1.35;;;1.33;;
77076;SDS011;66003;52.286;104.306;2023-02-01T00:46:11;7.40;;;3.92;;
77076;SDS011;66003;52.286;104.306;2023-02-01T00:48:38;2.13;;;1.23;;
77076;SDS011;66003;52.286;104.306;2023-02-01T00:51:08;3.25;;;2.22;;
77076;SDS011;66003;52.286;104.306;2023-02-01T00:53:36;4.43;;;2.95;;
77076;SDS011;66003;52.286;104.306;2023-02-01T00:56:03;4.78;;;1.58;;
77076;SDS011;66003;52.286;104.306;2023-02-01T00:58:30;2.58;;;1.60;;
77076;SDS011;66003;52.286;104.306;2023-02-01T01:03:35;1.10;;;1.10;;
77076;SDS011;66003;52.286;104.306;2023-02-01T01:06:04;1.10;;;1.10;;
77076;SDS011;66003;52.286;104.306;2023-02-01T01:08:33;2.95;;;1.88;;
77076;SDS011;66003;52.286;104.306;2023-02-01T01:11:03;6.50;;;3.67;;
77076;SDS011;66003;52.286;104.306;2023-02-01T01:13:31;1.08;;;1.08;;
77076;SDS011;66003;52.286;104.306;2023-02-01T01:15:59;2.53;;;2.17;;
77076;SDS011;66003;52.286;104.306;2023-02-01T01:18:28;3.70;;;3.17;;
77076;SDS011;66003;52.286;104.306;2023-02-01T01:20:55;3.13;;;2.10;;
77076;SDS011;66003;52.286;104.306;2023-02-01T01:23:21;2.75;;;2.55;;
77076;SDS011;66003;52.286;104.306;2023-02-01T01:25:48;4.22;;;2.28;;
77076;SDS011;66003;52.286;104.306;2023-02-01T01:28:14;6.45;;;4.57;;
77076;SDS011;66003;52.286;104.306;2023-02-01T01:30:40;0.93;;;0.93;;
77076;SDS011;66003;52.286;104.306;2023-02-01T01:33:07;4.68;;;2.03;;
77076;SDS011;66003;52.286;104.306;2023-02-01T01:35:33;20.00;;;7.40;;
77076;SDS011;66003;52.286;104.306;2023-02-01T01:38:00;15.95;;;8.07;;
77076;SDS011;66003;52.286;104.306;2023-02-01T01:40:27;1.60;;;1.38;;
77076;SDS011;66003;52.286;104.306;2023-02-01T01:42:54;2.47;;;1.80;;
77076;SDS011;66003;52.286;104.306;2023-02-01T01:45:23;9.57;;;3.13;;
77076;SDS011;66003;52.286;104.306;2023-02-01T01:47:58;13.80;;;5.93;;
77076;SDS011;66003;52.286;104.306;2023-02-01T01:51:03;13.48;;;5.55;;
77076;SDS011;66003;52.286;104.306;2023-02-01T01:53:34;5.22;;;2.88;;
77076;SDS011;66003;52.286;104.306;2023-02-01T01:56:10;1.92;;;1.73;;
77076;SDS011;66003;52.286;104.306;2023-02-01T01:58:41;1.27;;;1.05;;
77076;SDS011;66003;52.286;104.306;2023-02-01T02:01:08;3.55;;;1.48;;
77076;SDS011;66003;52.286;104.306;2023-02-01T02:03:35;10.30;;;4.78;;
77076;SDS011;66003;52.286;104.306;2023-02-01T02:06:05;6.00;;;2.30;;
77076;SDS011;66003;52.286;104.306;2023-02-01T02:08:39;9.60;;;4.18;;
77076;SDS011;66003;52.286;104.306;2023-02-01T02:11:05;6.43;;;2.40;;
77076;SDS011;66003;52.286;104.306;2023-02-01T02:16:13;10.88;;;5.03;;
77076;SDS011;66003;52.286;104.306;2023-02-01T02:33:20;5.90;;;3.38;;
77076;SDS011;66003;52.286;104.306;2023-02-01T02:36:01;12.07;;;5.07;;
77076;SDS011;66003;52.286;104.306;2023-02-01T02:38:39;10.95;;;4.35;;
77076;SDS011;66003;52.286;104.306;2023-02-01T02:44:14;9.52;;;4.35;;
77076;SDS011;66003;52.286;104.306;2023-02-01T02:47:14;2.97;;;2.72;;
77076;SDS011;66003;52.286;104.306;2023-02-01T02:49:52;10.07;;;4.90;;
77076;SDS011;66003;52.286;104.306;2023-02-01T02:53:43;14.23;;;7.57;;
77076;SDS011;66003;52.286;104.306;2023-02-01T02:56:25;10.52;;;3.58;;
77076;SDS011;66003;52.286;104.306;2023-02-01T02:59:11;7.82;;;3.83;;
77076;SDS011;66003;52.286;104.306;2023-02-01T03:01:59;7.40;;;4.28;;
77076;SDS011;66003;52.286;104.306;2023-02-01T03:04:44;11.88;;;5.90;;
77076;SDS011;66003;52.286;104.306;2023-02-01T03:07:14;6.57;;;4.47;;
77076;SDS011;66003;52.286;104.306;2023-02-01T03:09:58;7.90;;;2.75;;
77076;SDS011;66003;52.286;104.306;2023-02-01T03:12:29;13.30;;;5.93;;
77076;SDS011;66003;52.286;104.306;2023-02-01T03:15:21;10.50;;;4.65;;
77076;SDS011;66003;52.286;104.306;2023-02-01T03:17:53;7.40;;;4.13;;
77076;SDS011;66003;52.286;104.306;2023-02-01T03:20:24;6.10;;;4.35;;
77076;SDS011;66003;52.286;104.306;2023-02-01T03:22:51;16.25;;;8.98;;
77076;SDS011;66003;52.286;104.306;2023-02-01T03:25:22;21.63;;;12.18;;
77076;SDS011;66003;52.286;104.306;2023-02-01T03:27:57;10.35;;;6.60;;
77076;SDS011;66003;52.286;104.306;2023-02-01T03:30:34;4.75;;;2.60;;
77076;SDS011;66003;52.286;104.306;2023-02-01T03:33:04;8.57;;;3.88;;
77076;SDS011;66003;52.286;104.306;2023-02-01T03:41:08;0.73;;;0.73;;
77076;SDS011;66003;52.286;104.306;2023-02-01T03:43:58;12.15;;;6.00;;
77076;SDS011;66003;52.286;104.306;2023-02-01T03:49:19;5.78;;;2.83;;
77076;SDS011;66003;52.286;104.306;2023-02-01T03:51:51;5.32;;;4.95;;
77076;SDS011;66003;52.286;104.306;2023-02-01T03:54:18;12.30;;;6.40;;
77076;SDS011;66003;52.286;104.306;2023-02-01T03:56:46;8.93;;;5.25;;
77076;SDS011;66003;52.286;104.306;2023-02-01T04:01:40;9.55;;;5.70;;
77076;SDS011;66003;52.286;104.306;2023-02-01T04:04:06;12.95;;;6.80;;
77076;SDS011;66003;52.286;104.306;2023-02-01T04:06:32;16.58;;;9.75;;
77076;SDS011;66003;52.286;104.306;2023-02-01T04:08:58;26.40;;;11.73;;
77076;SDS011;66003;52.286;104.306;2023-02-01T04:11:24;26.95;;;11.93;;
77076;SDS011;66003;52.286;104.306;2023-02-01T04:13:53;13.38;;;7.50;;
77076;SDS011;66003;52.286;104.306;2023-02-01T04:16:19;25.40;;;11.40;;
77076;SDS011;66003;52.286;104.306;2023-02-01T04:18:45;21.50;;;11.27;;
77076;SDS011;66003;52.286;104.306;2023-02-01T04:21:11;9.05;;;5.18;;
77076;SDS011;66003;52.286;104.306;2023-02-01T04:23:37;8.73;;;5.07;;
77076;SDS011;66003;52.286;104.306;2023-02-01T04:26:03;6.13;;;2.88;;
77076;SDS011;66003;52.286;104.306;2023-02-01T04:28:30;12.98;;;7.30;;
77076;SDS011;66003;52.286;104.306;2023-02-01T04:30:58;4.50;;;3.13;;
77076;SDS011;66003;52.286;104.306;2023-02-01T04:33:42;2.22;;;1.70;;
77076;SDS011;66003;52.286;104.306;2023-02-01T04:36:09;5.43;;;2.85;;
77076;SDS011;66003;52.286;104.306;2023-02-01T04:38:35;5.70;;;3.45;;
77076;SDS011;66003;52.286;104.306;2023-02-01T04:41:01;8.38;;;4.32;;
77076;SDS011;66003;52.286;104.306;2023-02-01T04:43:27;14.65;;;6.97;;
77076;SDS011;66003;52.286;104.306;2023-02-01T04:45:54;8.85;;;4.63;;
77076;SDS011;66003;52.286;104.306;2023-02-01T04:48:20;1.23;;;1.17;;
77076;SDS011;66003;52.286;104.306;2023-02-01T04:50:47;7.90;;;5.10;;
77076;SDS011;66003;52.286;104.306;2023-02-01T04:53:14;5.25;;;3.78;;
77076;SDS011;66003;52.286;104.306;2023-02-01T04:55:41;8.57;;;4.45;;
77076;SDS011;66003;52.286;104.306;2023-02-01T04:58:07;6.53;;;3.60;;
77076;SDS011;66003;52.286;104.306;2023-02-01T05:00:34;2.22;;;1.77;;
77076;SDS011;66003;52.286;104.306;2023-02-01T05:03:01;10.02;;;6.70;;
77076;SDS011;66003;52.286;104.306;2023-02-01T05:05:27;25.90;;;9.65;;
77076;SDS011;66003;52.286;104.306;2023-02-01T05:07:53;12.68;;;8.02;;
77076;SDS011;66003;52.286;104.306;2023-02-01T05:10:20;13.68;;;7.68;;
77076;SDS011;66003;52.286;104.306;2023-02-01T05:12:46;14.57;;;6.25;;
77076;SDS011;66003;52.286;104.306;2023-02-01T05:15:31;6.20;;;3.00;;
77076;SDS011;66003;52.286;104.306;2023-02-01T05:17:57;6.68;;;4.03;;
77076;SDS011;66003;52.286;104.306;2023-02-01T05:20:24;5.82;;;5.28;;
77076;SDS011;66003;52.286;104.306;2023-02-01T05:22:50;4.85;;;3.95;;
77076;SDS011;66003;52.286;104.306;2023-02-01T05:25:16;7.03;;;4.43;;
77076;SDS011;66003;52.286;104.306;2023-02-01T05:27:43;27.45;;;12.88;;
77076;SDS011;66003;52.286;104.306;2023-02-01T05:30:09;9.43;;;5.05;;
77076;SDS011;66003;52.286;104.306;2023-02-01T05:32:35;10.75;;;5.70;;
77076;SDS011;66003;52.286;104.306;2023-02-01T05:35:02;5.15;;;4.00;;
77076;SDS011;66003;52.286;104.306;2023-02-01T05:37:29;3.97;;;3.30;;
77076;SDS011;66003;52.286;104.306;2023-02-01T05:39:55;9.68;;;4.68;;
77076;SDS011;66003;52.286;104.306;2023-02-01T05:42:21;10.55;;;4.47;;
77076;SDS011;66003;52.286;104.306;2023-02-01T05:44:47;18.98;;;9.52;;
77076;SDS011;66003;52.286;104.306;2023-02-01T05:47:13;11.80;;;7.72;;
77076;SDS011;66003;52.286;104.306;2023-02-01T05:49:40;6.22;;;4.75;;
77076;SDS011;66003;52.286;104.306;2023-02-01T05:52:06;11.93;;;5.88;;
77076;SDS011;66003;52.286;104.306;2023-02-01T05:54:32;19.23;;;8.48;;
77076;SDS011;66003;52.286;104.306;2023-02-01T05:56:58;29.70;;;12.18;;
77076;SDS011;66003;52.286;104.306;2023-02-01T05:59:24;19.67;;;10.02;;
77076;SDS011;66003;52.286;104.306;2023-02-01T06:01:50;50.80;;;22.80;;
77076;SDS011;66003;52.286;104.306;2023-02-01T06:04:16;33.97;;;17.05;;
77076;SDS011;66003;52.286;104.306;2023-02-01T06:06:42;25.35;;;12.57;;
77076;SDS011;66003;52.286;104.306;2023-02-01T06:09:09;28.10;;;15.60;;
77076;SDS011;66003;52.286;104.306;2023-02-01T06:11:35;15.30;;;8.05;;
77076;SDS011;66003;52.286;104.306;2023-02-01T06:14:01;31.10;;;14.20;;
77076;SDS011;66003;52.286;104.306;2023-02-01T06:16:27;32.53;;;15.02;;
77076;SDS011;66003;52.286;104.306;2023-02-01T06:18:53;32.17;;;17.95;;
77076;SDS011;66003;52.286;104.306;2023-02-01T06:21:19;47.05;;;22.92;;
77076;SDS011;66003;52.286;104.306;2023-02-01T06:23:52;43.70;;;21.52;;
77076;SDS011;66003;52.286;104.306;2023-02-01T06:26:19;16.83;;;10.07;;
77076;SDS011;66003;52.286;104.306;2023-02-01T06:28:46;40.90;;;16.30;;
77076;SDS011;66003;52.286;104.306;2023-02-01T06:31:12;36.45;;;17.05;;
77076;SDS011;66003;52.286;104.306;2023-02-01T06:33:38;38.42;;;20.48;;
77076;SDS011;66003;52.286;104.306;2023-02-01T06:36:05;36.17;;;16.85;;
77076;SDS011;66003;52.286;104.306;2023-02-01T06:38:33;17.75;;;10.40;;
77076;SDS011;66003;52.286;104.306;2023-02-01T06:41:02;31.58;;;13.80;;
77076;SDS011;66003;52.286;104.306;2023-02-01T06:43:29;28.08;;;15.18;;
77076;SDS011;66003;52.286;104.306;2023-02-01T06:46:02;27.45;;;13.82;;
77076;SDS011;66003;52.286;104.306;2023-02-01T06:50:57;25.52;;;11.88;;
77076;SDS011;66003;52.286;104.306;2023-02-01T06:53:24;21.92;;;12.63;;
77076;SDS011;66003;52.286;104.306;2023-02-01T06:55:54;27.75;;;15.07;;
77076;SDS011;66003;52.286;104.306;2023-02-01T06:58:21;25.73;;;11.93;;
77076;SDS011;66003;52.286;104.306;2023-02-01T07:00:48;23.42;;;13.05;;
77076;SDS011;66003;52.286;104.306;2023-02-01T07:03:15;25.90;;;14.93;;
77076;SDS011;66003;52.286;104.306;2023-02-01T07:05:42;33.55;;;17.58;;
77076;SDS011;66003;52.286;104.306;2023-02-01T07:08:08;30.55;;;13.82;;
77076;SDS011;66003;52.286;104.306;2023-02-01T07:10:34;33.88;;;17.58;;
77076;SDS011;66003;52.286;104.306;2023-02-01T07:13:00;23.00;;;13.65;;
77076;SDS011;66003;52.286;104.306;2023-02-01T07:15:26;21.67;;;8.80;;
77076;SDS011;66003;52.286;104.306;2023-02-01T07:17:55;30.85;;;13.68;;
77076;SDS011;66003;52.286;104.306;2023-02-01T07:20:22;26.92;;;11.43;;
77076;SDS011;66003;52.286;104.306;2023-02-01T07:22:49;29.77;;;12.57;;
77076;SDS011;66003;52.286;104.306;2023-02-01T07:25:20;23.33;;;11.98;;
77076;SDS011;66003;52.286;104.306;2023-02-01T07:27:47;18.88;;;9.48;;
77076;SDS011;66003;52.286;104.306;2023-02-01T07:30:13;11.68;;;9.52;;
77076;SDS011;66003;52.286;104.306;2023-02-01T07:32:39;14.27;;;7.38;;
77076;SDS011;66003;52.286;104.306;2023-02-01T07:35:05;18.15;;;11.07;;
77076;SDS011;66003;52.286;104.306;2023-02-01T07:37:31;20.83;;;12.70;;
77076;SDS011;66003;52.286;104.306;2023-02-01T07:39:57;18.70;;;9.35;;
77076;SDS011;66003;52.286;104.306;2023-02-01T07:42:24;24.80;;;13.30;;
77076;SDS011;66003;52.286;104.306;2023-02-01T07:44:50;15.48;;;10.65;;
77076;SDS011;66003;52.286;104.306;2023-02-01T07:47:16;32.55;;;13.82;;
77076;SDS011;66003;52.286;104.306;2023-02-01T07:49:42;22.38;;;13.00;;
77076;SDS011;66003;52.286;104.306;2023-02-01T07:52:08;22.15;;;10.48;;
77076;SDS011;66003;52.286;104.306;2023-02-01T07:54:36;14.10;;;8.80;;
77076;SDS011;66003;52.286;104.306;2023-02-01T07:57:02;16.55;;;9.18;;
77076;SDS011;66003;52.286;104.306;2023-02-01T07:59:28;14.85;;;6.50;;
77076;SDS011;66003;52.286;104.306;2023-02-01T08:01:54;11.80;;;7.15;;
77076;SDS011;66003;52.286;104.306;2023-02-01T08:04:20;20.20;;;11.07;;
77076;SDS011;66003;52.286;104.306;2023-02-01T08:06:46;19.13;;;9.50;;
77076;SDS011;66003;52.286;104.306;2023-02-01T08:09:13;15.88;;;8.52;;
77076;SDS011;66003;52.286;104.306;2023-02-01T08:11:39;13.05;;;6.88;;
77076;SDS011;66003;52.286;104.306;2023-02-01T08:14:05;24.00;;;10.63;;
77076;SDS011;66003;52.286;104.306;2023-02-01T08:16:32;36.33;;;10.30;;
77076;SDS011;66003;52.286;104.306;2023-02-01T08:19:00;13.45;;;6.93;;
77076;SDS011;66003;52.286;104.306;2023-02-01T08:21:28;23.77;;;7.85;;
77076;SDS011;66003;52.286;104.306;2023-02-01T08:24:07;14.27;;;4.35;;
77076;SDS011;66003;52.286;104.306;2023-02-01T08:26:34;15.48;;;6.53;;
77076;SDS011;66003;52.286;104.306;2023-02-01T08:29:02;10.30;;;6.40;;
77076;SDS011;66003;52.286;104.306;2023-02-01T08:31:30;14.30;;;8.18;;
77076;SDS011;66003;52.286;104.306;2023-02-01T08:33:58;11.52;;;6.57;;
77076;SDS011;66003;52.286;104.306;2023-02-01T08:36:27;6.47;;;3.33;;
77076;SDS011;66003;52.286;104.306;2023-02-01T08:38:55;17.73;;;8.25;;
77076;SDS011;66003;52.286;104.306;2023-02-01T08:41:23;8.98;;;5.40;;
77076;SDS011;66003;52.286;104.306;2023-02-01T08:43:53;11.73;;;5.05;;
77076;SDS011;66003;52.286;104.306;2023-02-01T08:46:20;11.55;;;6.07;;
77076;SDS011;66003;52.286;104.306;2023-02-01T08:48:47;14.00;;;4.93;;
77076;SDS011;66003;52.286;104.306;2023-02-01T08:51:15;7.97;;;4.70;;
77076;SDS011;66003;52.286;104.306;2023-02-01T08:56:12;5.35;;;3.00;;
77076;SDS011;66003;52.286;104.306;2023-02-01T08:58:39;5.28;;;3.63;;
77076;SDS011;66003;52.286;104.306;2023-02-01T09:01:06;9.15;;;5.80;;
77076;SDS011;66003;52.286;104.306;2023-02-01T09:03:34;11.70;;;4.70;;
77076;SDS011;66003;52.286;104.306;2023-02-01T09:06:01;9.15;;;3.67;;
77076;SDS011;66003;52.286;104.306;2023-02-01T09:08:28;18.00;;;7.45;;
77076;SDS011;66003;52.286;104.306;2023-02-01T09:10:58;17.15;;;6.40;;
77076;SDS011;66003;52.286;104.306;2023-02-01T09:13:26;11.57;;;5.93;;
77076;SDS011;66003;52.286;104.306;2023-02-01T09:15:52;8.27;;;5.93;;
77076;SDS011;66003;52.286;104.306;2023-02-01T09:18:18;6.68;;;3.40;;
77076;SDS011;66003;52.286;104.306;2023-02-01T09:20:45;7.80;;;3.08;;
77076;SDS011;66003;52.286;104.306;2023-02-01T09:23:11;5.57;;;2.45;;
77076;SDS011;66003;52.286;104.306;2023-02-01T09:25:37;7.13;;;5.03;;
77076;SDS011;66003;52.286;104.306;2023-02-01T09:28:04;13.63;;;9.20;;
77076;SDS011;66003;52.286;104.306;2023-02-01T09:30:32;13.93;;;5.28;;
77076;SDS011;66003;52.286;104.306;2023-02-01T09:32:58;9.07;;;4.57;;
77076;SDS011;66003;52.286;104.306;2023-02-01T09:35:24;12.10;;;5.32;;
77076;SDS011;66003;52.286;104.306;2023-02-01T09:37:52;13.18;;;3.60;;
77076;SDS011;66003;52.286;104.306;2023-02-01T09:40:18;15.02;;;6.15;;
77076;SDS011;66003;52.286;104.306;2023-02-01T09:43:05;9.93;;;5.45;;
77076;SDS011;66003;52.286;104.306;2023-02-01T09:45:49;14.18;;;5.43;;
77076;SDS011;66003;52.286;104.306;2023-02-01T09:48:27;13.55;;;7.25;;
77076;SDS011;66003;52.286;104.306;2023-02-01T09:50:58;7.15;;;4.18;;
77076;SDS011;66003;52.286;104.306;2023-02-01T09:58:59;1.50;;;1.25;;
77076;SDS011;66003;52.286;104.306;2023-02-01T10:01:36;3.63;;;2.83;;
77076;SDS011;66003;52.286;104.306;2023-02-01T10:04:09;7.72;;;3.88;;
77076;SDS011;66003;52.286;104.306;2023-02-01T10:18:20;10.63;;;4.72;;
77076;SDS011;66003;52.286;104.306;2023-02-01T10:23:57;5.55;;;2.90;;
77076;SDS011;66003;52.286;104.306;2023-02-01T10:26:25;2.85;;;2.08;;
77076;SDS011;66003;52.286;104.306;2023-02-01T10:28:58;4.55;;;3.92;;
77076;SDS011;66003;52.286;104.306;2023-02-01T10:31:36;9.85;;;5.10;;
77076;SDS011;66003;52.286;104.306;2023-02-01T10:34:10;7.97;;;3.97;;
77076;SDS011;66003;52.286;104.306;2023-02-01T10:37:00;8.15;;;5.38;;
77076;SDS011;66003;52.286;104.306;2023-02-01T10:39:35;12.80;;;6.45;;
77076;SDS011;66003;52.286;104.306;2023-02-01T10:42:02;7.13;;;4.10;;
77076;SDS011;66003;52.286;104.306;2023-02-01T10:44:29;6.22;;;4.80;;
77076;SDS011;66003;52.286;104.306;2023-02-01T10:46:59;12.18;;;6.65;;
77076;SDS011;66003;52.286;104.306;2023-02-01T10:52:00;9.57;;;6.20;;
77076;SDS011;66003;52.286;104.306;2023-02-01T10:54:36;17.77;;;8.40;;
77076;SDS011;66003;52.286;104.306;2023-02-01T10:59:55;10.27;;;5.22;;
77076;SDS011;66003;52.286;104.306;2023-02-01T11:05:04;12.65;;;5.90;;
77076;SDS011;66003;52.286;104.306;2023-02-01T11:07:38;5.90;;;3.17;;
77076;SDS011;66003;52.286;104.306;2023-02-01T11:10:57;7.72;;;5.60;;
77076;SDS011;66003;52.286;104.306;2023-02-01T11:13:14;8.05;;;7.03;;
77076;SDS011;66003;52.286;104.306;2023-02-01T11:15:44;16.67;;;8.02;;
77076;SDS011;66003;52.286;104.306;2023-02-01T11:18:15;34.00;;;16.73;;
77076;SDS011;66003;52.286;104.306;2023-02-01T11:20:44;50.30;;;22.05;;
77076;SDS011;66003;52.286;104.306;2023-02-01T11:23:15;10.43;;;5.93;;
77076;SDS011;66003;52.286;104.306;2023-02-01T11:25:48;25.90;;;12.13;;
77076;SDS011;66003;52.286;104.306;2023-02-01T11:28:16;10.90;;;7.25;;
77076;SDS011;66003;52.286;104.306;2023-02-01T11:30:44;22.13;;;12.40;;
77076;SDS011;66003;52.286;104.306;2023-02-01T11:33:18;25.83;;;11.45;;
77076;SDS011;66003;52.286;104.306;2023-02-01T11:35:46;32.97;;;16.70;;
77076;SDS011;66003;52.286;104.306;2023-02-01T11:38:18;29.60;;;14.70;;
77076;SDS011;66003;52.286;104.306;2023-02-01T11:40:52;10.88;;;6.50;;
77076;SDS011;66003;52.286;104.306;2023-02-01T11:45:53;12.20;;;5.22;;
77076;SDS011;66003;52.286;104.306;2023-02-01T11:48:25;10.27;;;6.88;;
77076;SDS011;66003;52.286;104.306;2023-02-01T11:54:01;22.85;;;11.15;;
77076;SDS011;66003;52.286;104.306;2023-02-01T11:57:02;5.22;;;4.47;;
77076;SDS011;66003;52.286;104.306;2023-02-01T12:02:57;8.85;;;7.22;;
77076;SDS011;66003;52.286;104.306;2023-02-01T12:08:25;16.75;;;8.68;;
77076;SDS011;66003;52.286;104.306;2023-02-01T12:11:04;22.60;;;11.93;;
77076;SDS011;66003;52.286;104.306;2023-02-01T12:19:38;17.95;;;11.50;;
77076;SDS011;66003;52.286;104.306;2023-02-01T12:31:09;14.65;;;9.75;;
77076;SDS011;66003;52.286;104.306;2023-02-01T12:39:32;8.43;;;6.00;;
77076;SDS011;66003;52.286;104.306;2023-02-01T12:45:14;17.80;;;9.18;;
77076;SDS011;66003;52.286;104.306;2023-02-01T12:48:13;8.95;;;5.65;;
77076;SDS011;66003;52.286;104.306;2023-02-01T12:51:19;23.40;;;10.32;;
77076;SDS011;66003;52.286;104.306;2023-02-01T12:56:37;33.45;;;14.90;;
77076;SDS011;66003;52.286;104.306;2023-02-01T13:02:29;9.13;;;2.85;;
77076;SDS011;66003;52.286;104.306;2023-02-01T13:07:59;3.22;;;2.63;;
77076;SDS011;66003;52.286;104.306;2023-02-01T13:18:39;22.17;;;9.60;;
77076;SDS011;66003;52.286;104.306;2023-02-01T13:21:20;9.77;;;3.95;;
77076;SDS011;66003;52.286;104.306;2023-02-01T13:23:51;5.47;;;2.80;;
77076;SDS011;66003;52.286;104.306;2023-02-01T13:26:18;5.90;;;3.67;;
77076;SDS011;66003;52.286;104.306;2023-02-01T13:34:33;14.35;;;7.32;;
77076;SDS011;66003;52.286;104.306;2023-02-01T13:42:55;22.80;;;9.38;;
77076;SDS011;66003;52.286;104.306;2023-02-01T13:45:27;16.55;;;9.27;;
77076;SDS011;66003;52.286;104.306;2023-02-01T13:47:58;23.63;;;12.07;;
77076;SDS011;66003;52.286;104.306;2023-02-01T13:50:31;5.90;;;3.83;;
77076;SDS011;66003;52.286;104.306;2023-02-01T13:53:03;5.20;;;4.75;;
77076;SDS011;66003;52.286;104.306;2023-02-01T13:55:45;26.48;;;14.43;;
77076;SDS011;66003;52.286;104.306;2023-02-01T13:58:21;14.55;;;9.13;;
77076;SDS011;66003;52.286;104.306;2023-02-01T14:03:53;3.42;;;3.20;;
77076;SDS011;66003;52.286;104.306;2023-02-01T14:16:42;16.58;;;9.65;;
77076;SDS011;66003;52.286;104.306;2023-02-01T14:22:00;15.60;;;6.90;;
77076;SDS011;66003;52.286;104.306;2023-02-01T14:24:51;13.35;;;7.75;;
77076;SDS011;66003;52.286;104.306;2023-02-01T14:27:29;4.93;;;2.75;;
77076;SDS011;66003;52.286;104.306;2023-02-01T14:30:07;6.57;;;3.13;;
77076;SDS011;66003;52.286;104.306;2023-02-01T14:32:40;3.53;;;3.20;;
77076;SDS011;66003;52.286;104.306;2023-02-01T14:35:24;7.68;;;5.40;;
77076;SDS011;66003;52.286;104.306;2023-02-01T14:38:30;25.48;;;9.80;;
77076;SDS011;66003;52.286;104.306;2023-02-01T14:41:11;20.90;;;11.27;;
77076;SDS011;66003;52.286;104.306;2023-02-01T14:52:30;2.33;;;1.90;;
77076;SDS011;66003;52.286;104.306;2023-02-01T14:55:02;5.45;;;2.90;;
77076;SDS011;66003;52.286;104.306;2023-02-01T14:57:32;1.38;;;1.08;;
77076;SDS011;66003;52.286;104.306;2023-02-01T15:00:37;1.27;;;1.27;;
77076;SDS011;66003;52.286;104.306;2023-02-01T15:05:56;2.53;;;2.40;;
77076;SDS011;66003;52.286;104.306;2023-02-01T15:08:34;5.05;;;2.58;;
77076;SDS011;66003;52.286;104.306;2023-02-01T15:11:06;0.75;;;0.75;;
77076;SDS011;66003;52.286;104.306;2023-02-01T15:13:39;5.50;;;4.13;;
77076;SDS011;66003;52.286;104.306;2023-02-01T15:16:12;4.03;;;2.78;;
77076;SDS011;66003;52.286;104.306;2023-02-01T15:18:40;4.07;;;3.80;;
77076;SDS011;66003;52.286;104.306;2023-02-01T15:21:28;3.22;;;2.50;;
77076;SDS011;66003;52.286;104.306;2023-02-01T15:24:09;1.05;;;1.05;;
77076;SDS011;66003;52.286;104.306;2023-02-01T15:26:40;2.22;;;2.08;;
77076;SDS011;66003;52.286;104.306;2023-02-01T15:29:09;2.03;;;1.95;;
77076;SDS011;66003;52.286;104.306;2023-02-01T15:31:48;14.63;;;7.07;;
77076;SDS011;66003;52.286;104.306;2023-02-01T15:34:16;1.83;;;1.65;;
77076;SDS011;66003;52.286;104.306;2023-02-01T15:36:43;16.95;;;8.25;;
77076;SDS011;66003;52.286;104.306;2023-02-01T15:39:12;20.58;;;7.60;;
77076;SDS011;66003;52.286;104.306;2023-02-01T15:44:42;5.00;;;3.80;;
77076;SDS011;66003;52.286;104.306;2023-02-01T15:47:18;23.65;;;9.23;;
77076;SDS011;66003;52.286;104.306;2023-02-01T15:49:52;4.53;;;2.65;;
77076;SDS011;66003;52.286;104.306;2023-02-01T15:52:54;21.58;;;9.23;;
77076;SDS011;66003;52.286;104.306;2023-02-01T15:58:20;4.90;;;3.63;;
77076;SDS011;66003;52.286;104.306;2023-02-01T16:00:49;4.13;;;3.33;;
77076;SDS011;66003;52.286;104.306;2023-02-01T16:03:24;5.85;;;4.18;;
77076;SDS011;66003;52.286;104.306;2023-02-01T16:06:03;6.60;;;3.45;;
77076;SDS011;66003;52.286;104.306;2023-02-01T16:08:34;9.77;;;3.90;;
77076;SDS011;66003;52.286;104.306;2023-02-01T16:13:34;3.60;;;3.38;;
77076;SDS011;66003;52.286;104.306;2023-02-01T16:16:01;2.80;;;2.67;;
77076;SDS011;66003;52.286;104.306;2023-02-01T16:18:29;5.90;;;3.33;;
77076;SDS011;66003;52.286;104.306;2023-02-01T16:20:55;7.57;;;2.88;;
77076;SDS011;66003;52.286;104.306;2023-02-01T16:23:21;1.73;;;1.65;;
77076;SDS011;66003;52.286;104.306;2023-02-01T16:25:47;8.77;;;4.20;;
77076;SDS011;66003;52.286;104.306;2023-02-01T16:28:13;5.25;;;3.33;;
77076;SDS011;66003;52.286;104.306;2023-02-01T16:30:39;2.13;;;2.03;;
77076;SDS011;66003;52.286;104.306;2023-02-01T16:33:05;10.45;;;5.07;;
77076;SDS011;66003;52.286;104.306;2023-02-01T16:35:41;0.82;;;0.82;;
77076;SDS011;66003;52.286;104.306;2023-02-01T16:38:13;10.60;;;2.65;;
77076;SDS011;66003;52.286;104.306;2023-02-01T16:40:44;2.80;;;1.83;;
77076;SDS011;66003;52.286;104.306;2023-02-01T16:43:12;11.60;;;5.50;;
77076;SDS011;66003;52.286;104.306;2023-02-01T16:45:40;13.50;;;6.57;;
77076;SDS011;66003;52.286;104.306;2023-02-01T16:48:16;7.90;;;3.80;;
77076;SDS011;66003;52.286;104.306;2023-02-01T16:50:47;12.45;;;5.72;;
77076;SDS011;66003;52.286;104.306;2023-02-01T16:53:18;5.10;;;2.25;;
77076;SDS011;66003;52.286;104.306;2023-02-01T16:55:44;3.72;;;1.73;;
77076;SDS011;66003;52.286;104.306;2023-02-01T16:58:13;0.95;;;0.93;;
77076;SDS011;66003;52.286;104.306;2023-02-01T17:00:39;2.08;;;1.15;;
77076;SDS011;66003;52.286;104.306;2023-02-01T17:03:05;11.75;;;3.47;;
77076;SDS011;66003;52.286;104.306;2023-02-01T17:05:32;4.38;;;2.42;;
77076;SDS011;66003;52.286;104.306;2023-02-01T17:08:04;1.58;;;1.52;;
77076;SDS011;66003;52.286;104.306;2023-02-01T17:10:32;2.10;;;1.95;;
77076;SDS011;66003;52.286;104.306;2023-02-01T17:12:58;1.30;;;1.20;;
77076;SDS011;66003;52.286;104.306;2023-02-01T17:15:26;1.27;;;1.23;;
77076;SDS011;66003;52.286;104.306;2023-02-01T17:17:54;3.50;;;2.63;;
77076;SDS011;66003;52.286;104.306;2023-02-01T17:20:22;1.40;;;1.27;;
77076;SDS011;66003;52.286;104.306;2023-02-01T17:22:50;3.00;;;0.88;;